createdAt,value
2019-05-21T00:00:01.171Z,14.02
2019-05-21T00:01:01.130Z,14.03
2019-05-21T00:02:01.062Z,14.12
2019-05-21T00:03:01.021Z,14.03
2019-05-21T00:04:00.983Z,14.03
2019-05-21T00:05:00.942Z,14.03
2019-05-21T00:06:00.934Z,14.00
2019-05-21T00:07:00.862Z,14.06
2019-05-21T00:08:00.822Z,14.04
2019-05-21T00:09:00.782Z,13.99
2019-05-21T00:10:00.735Z,13.96
2019-05-21T00:11:00.695Z,14.00
2019-05-21T00:12:00.678Z,14.06
2019-05-21T00:13:00.649Z,14.07
2019-05-21T00:14:00.583Z,14.07
2019-05-21T00:15:00.543Z,13.97
2019-05-21T00:16:00.503Z,14.03
2019-05-21T00:17:00.523Z,13.99
2019-05-21T00:18:00.417Z,13.99
2019-05-21T00:19:00.381Z,13.96
2019-05-21T00:20:00.336Z,13.92
2019-05-21T00:21:00.292Z,13.99
2019-05-21T00:22:00.252Z,13.92
2019-05-21T00:23:00.238Z,13.97
2019-05-21T00:24:00.172Z,13.95
2019-05-21T00:25:00.137Z,13.95
2019-05-21T00:26:00.123Z,13.95
2019-05-21T00:27:00.055Z,13.97
2019-05-21T00:28:00.026Z,13.95
2019-05-21T00:28:59.969Z,13.91
2019-05-21T00:29:59.928Z,13.96
2019-05-21T00:30:59.896Z,13.97
2019-05-21T00:31:59.882Z,13.99
2019-05-21T00:32:59.812Z,14.02
2019-05-21T00:33:59.765Z,13.96
2019-05-21T00:34:59.726Z,13.78
2019-05-21T00:35:59.684Z,13.79
2019-05-21T00:36:59.717Z,13.79
2019-05-21T00:37:59.614Z,13.82
2019-05-21T00:38:59.590Z,13.78
2019-05-21T00:39:59.539Z,13.82
2019-05-21T00:40:59.492Z,13.78
2019-05-21T00:41:59.471Z,13.78
2019-05-21T00:42:59.401Z,13.77
2019-05-21T00:43:59.359Z,13.79
2019-05-21T00:44:59.327Z,13.73
2019-05-21T00:45:59.284Z,13.69
2019-05-21T00:46:59.240Z,13.70
2019-05-21T00:47:59.224Z,13.62
2019-05-21T00:48:59.162Z,13.62
2019-05-21T00:49:59.123Z,13.71
2019-05-21T00:50:59.079Z,13.63
2019-05-21T00:52:06.847Z,13.55
2019-05-21T00:52:59.017Z,13.60
2019-05-21T00:53:58.968Z,13.57
2019-05-21T00:54:58.915Z,13.51
2019-05-21T00:55:58.876Z,13.62
2019-05-21T00:56:58.841Z,13.54
2019-05-21T00:57:58.823Z,13.57
2019-05-21T00:58:58.760Z,13.62
2019-05-21T00:59:58.745Z,13.57
2019-05-21T01:00:58.668Z,13.60
2019-05-21T01:01:58.629Z,13.55
2019-05-21T01:02:58.599Z,13.55
2019-05-21T01:03:58.555Z,13.55
2019-05-21T01:05:00.995Z,13.49
2019-05-21T01:05:58.495Z,13.51
2019-05-21T01:06:58.456Z,13.57
2019-05-21T01:07:58.383Z,13.54
2019-05-21T01:08:58.413Z,13.54
2019-05-21T01:09:58.311Z,13.59
2019-05-21T01:10:58.267Z,13.51
2019-05-21T01:11:58.230Z,13.42
2019-05-21T01:12:58.291Z,13.46
2019-05-21T01:13:58.136Z,13.48
2019-05-21T01:14:58.100Z,13.51
2019-05-21T01:15:58.061Z,13.48
2019-05-21T01:16:58.023Z,13.42
2019-05-21T01:17:57.983Z,13.46
2019-05-21T01:18:57.964Z,13.39
2019-05-21T01:19:57.897Z,13.46
2019-05-21T01:20:57.857Z,13.46
2019-05-21T01:21:57.823Z,13.41
2019-05-21T01:22:57.782Z,13.46
2019-05-21T01:23:57.762Z,13.45
2019-05-21T01:24:57.691Z,13.41
2019-05-21T01:25:57.682Z,13.41
2019-05-21T01:26:57.613Z,13.38
2019-05-21T01:27:57.572Z,13.36
2019-05-21T01:28:57.537Z,13.39
2019-05-21T01:29:57.494Z,13.39
2019-05-21T01:30:57.505Z,13.41
2019-05-21T01:31:57.414Z,13.36
2019-05-21T01:32:57.377Z,13.41
2019-05-21T01:33:57.325Z,13.45
2019-05-21T01:34:57.296Z,13.44
2019-05-21T01:35:57.252Z,13.45
2019-05-21T01:36:57.228Z,13.42
2019-05-21T01:37:57.160Z,13.32
2019-05-21T01:38:57.124Z,13.41
2019-05-21T01:39:57.123Z,13.38
2019-05-21T01:40:57.048Z,13.38
2019-05-21T01:41:57.007Z,13.39
2019-05-21T01:42:56.964Z,13.36
2019-05-21T01:43:56.930Z,13.36
2019-05-21T01:44:56.877Z,13.33
2019-05-21T01:45:56.854Z,13.36
2019-05-21T01:46:56.823Z,13.36
2019-05-21T01:47:56.752Z,13.23
2019-05-21T01:48:56.716Z,13.36
2019-05-21T01:49:56.675Z,13.33
2019-05-21T01:50:56.632Z,13.28
2019-05-21T01:51:56.646Z,13.28
2019-05-21T01:52:56.602Z,13.26
2019-05-21T01:53:56.518Z,13.32
2019-05-21T01:54:56.477Z,13.32
2019-05-21T01:55:56.437Z,13.28
2019-05-21T01:56:56.381Z,13.23
2019-05-21T01:57:56.369Z,13.30
2019-05-21T01:58:56.306Z,13.28
2019-05-21T01:59:56.266Z,13.29
2019-05-21T02:00:56.230Z,13.28
2019-05-21T02:01:56.187Z,13.25
2019-05-21T02:02:56.170Z,13.22
2019-05-21T02:03:56.105Z,13.26
2019-05-21T02:04:56.061Z,13.25
2019-05-21T02:05:56.020Z,13.26
2019-05-21T02:06:55.981Z,13.22
2019-05-21T02:07:55.969Z,13.30
2019-05-21T02:08:55.902Z,13.26
2019-05-21T02:09:55.853Z,13.29
2019-05-21T02:10:55.820Z,13.25
2019-05-21T02:11:55.779Z,13.25
2019-05-21T02:12:55.760Z,13.19
2019-05-21T02:13:55.705Z,13.25
2019-05-21T02:14:55.682Z,13.22
2019-05-21T02:15:55.632Z,13.22
2019-05-21T02:16:55.566Z,13.22
2019-05-21T02:17:55.528Z,13.25
2019-05-21T02:18:55.484Z,13.15
2019-05-21T02:19:55.477Z,13.19
2019-05-21T02:20:55.413Z,13.20
2019-05-21T02:21:55.371Z,13.19
2019-05-21T02:22:55.329Z,13.20
2019-05-21T02:23:55.283Z,13.12
2019-05-21T02:24:55.246Z,13.17
2019-05-21T02:25:55.227Z,13.23
2019-05-21T02:26:55.163Z,13.22
2019-05-21T02:27:55.127Z,13.19
2019-05-21T02:28:55.084Z,13.23
2019-05-21T02:29:55.035Z,13.04
2019-05-21T02:30:56.633Z,13.11
2019-05-21T02:31:54.959Z,13.11
2019-05-21T02:32:54.919Z,13.12
2019-05-21T02:33:54.879Z,13.05
2019-05-21T02:34:54.858Z,13.05
2019-05-21T02:35:55.197Z,13.05
2019-05-21T02:36:54.798Z,13.14
2019-05-21T02:37:54.723Z,13.07
2019-05-21T02:38:54.674Z,13.05
2019-05-21T02:39:54.631Z,13.08
2019-05-21T02:40:54.593Z,13.08
2019-05-21T02:41:54.570Z,13.04
2019-05-21T02:42:54.507Z,13.05
2019-05-21T02:43:54.467Z,13.12
2019-05-21T02:44:54.828Z,13.05
2019-05-21T02:45:54.393Z,13.07
2019-05-21T02:46:54.377Z,13.05
2019-05-21T02:47:54.306Z,13.10
2019-05-21T02:48:54.260Z,13.10
2019-05-21T02:49:54.218Z,13.04
2019-05-21T02:50:54.214Z,13.01
2019-05-21T02:51:54.165Z,13.08
2019-05-21T02:52:54.103Z,13.11
2019-05-21T02:53:54.069Z,13.14
2019-05-21T02:54:54.011Z,13.04
2019-05-21T02:55:53.975Z,13.07
2019-05-21T02:56:53.957Z,13.07
2019-05-21T02:57:53.921Z,13.07
2019-05-21T02:58:53.883Z,13.08
2019-05-21T02:59:53.817Z,13.04
2019-05-21T03:00:53.771Z,13.04
2019-05-21T03:01:53.726Z,13.04
2019-05-21T03:02:53.690Z,13.00
2019-05-21T03:03:53.682Z,13.07
2019-05-21T03:04:53.610Z,13.05
2019-05-21T03:06:10.521Z,12.97
2019-05-21T03:06:53.532Z,13.00
2019-05-21T03:07:53.501Z,13.12
2019-05-21T03:08:53.446Z,13.00
2019-05-21T03:09:53.429Z,13.05
2019-05-21T03:10:53.368Z,13.04
2019-05-21T03:11:53.330Z,13.03
2019-05-21T03:12:53.282Z,13.00
2019-05-21T03:13:53.238Z,13.01
2019-05-21T03:14:53.200Z,13.07
2019-05-21T03:15:53.175Z,13.10
2019-05-21T03:16:53.117Z,13.08
2019-05-21T03:17:53.114Z,13.04
2019-05-21T03:18:53.040Z,13.04
2019-05-21T03:19:53.020Z,13.01
2019-05-21T03:20:52.963Z,13.05
2019-05-21T03:21:52.931Z,13.07
2019-05-21T03:22:52.873Z,13.04
2019-05-21T03:23:52.834Z,13.01
2019-05-21T03:24:52.793Z,12.95
2019-05-21T03:25:52.751Z,13.03
2019-05-21T03:26:52.726Z,13.03
2019-05-21T03:27:52.662Z,13.07
2019-05-21T03:28:52.631Z,13.04
2019-05-21T03:29:52.584Z,13.00
2019-05-21T03:30:52.541Z,13.03
2019-05-21T03:31:52.506Z,13.01
2019-05-21T03:32:52.481Z,13.01
2019-05-21T03:33:52.558Z,13.10
2019-05-21T03:34:52.438Z,13.03
2019-05-21T03:35:52.333Z,13.00
2019-05-21T03:36:52.318Z,13.00
2019-05-21T03:37:52.305Z,13.00
2019-05-21T03:38:52.216Z,13.05
2019-05-21T03:39:52.175Z,13.03
2019-05-21T03:40:52.133Z,13.07
2019-05-21T03:41:52.089Z,13.03
2019-05-21T03:42:52.050Z,13.10
2019-05-21T03:43:52.042Z,13.07
2019-05-21T03:44:59.704Z,13.03
2019-05-21T03:45:51.924Z,13.05
2019-05-21T03:46:51.879Z,13.11
2019-05-21T03:47:51.841Z,13.08
2019-05-21T03:48:51.828Z,13.03
2019-05-21T03:49:51.799Z,13.07
2019-05-21T03:50:51.727Z,13.07
2019-05-21T03:51:51.694Z,13.03
2019-05-21T03:52:51.636Z,13.04
2019-05-21T03:53:51.614Z,13.04
2019-05-21T03:54:51.576Z,13.07
2019-05-21T03:55:51.519Z,13.05
2019-05-21T03:56:51.476Z,13.05
2019-05-21T03:57:51.443Z,13.07
2019-05-21T03:58:51.397Z,13.08
2019-05-21T03:59:51.347Z,13.11
2019-05-21T04:00:51.338Z,13.01
2019-05-21T04:01:51.285Z,13.10
2019-05-21T04:02:51.230Z,13.08
2019-05-21T04:03:51.225Z,13.05
2019-05-21T04:04:51.237Z,13.05
2019-05-21T04:05:51.105Z,13.05
2019-05-21T04:06:52.542Z,13.20
2019-05-21T04:07:51.019Z,13.08
2019-05-21T04:08:50.989Z,13.05
2019-05-21T04:09:50.972Z,13.05
2019-05-21T04:10:50.909Z,13.10
2019-05-21T04:11:53.304Z,13.14
2019-05-21T04:12:50.812Z,13.07
2019-05-21T04:13:50.775Z,13.15
2019-05-21T04:14:50.770Z,13.11
2019-05-21T04:15:50.717Z,13.12
2019-05-21T04:16:50.653Z,13.11
2019-05-21T04:17:50.663Z,13.19
2019-05-21T04:18:50.572Z,13.17
2019-05-21T04:19:50.556Z,13.17
2019-05-21T04:20:50.506Z,13.22
2019-05-21T04:21:50.466Z,13.14
2019-05-21T04:22:50.413Z,13.17
2019-05-21T04:23:50.374Z,13.20
2019-05-21T04:24:50.325Z,13.12
2019-05-21T04:25:50.325Z,13.20
2019-05-21T04:26:50.244Z,13.17
2019-05-21T04:27:50.202Z,13.14
2019-05-21T04:28:50.170Z,13.17
2019-05-21T04:29:50.120Z,13.14
2019-05-21T04:30:50.119Z,13.19
2019-05-21T04:31:50.117Z,13.15
2019-05-21T04:32:50.012Z,13.17
2019-05-21T04:33:49.971Z,13.11
2019-05-21T04:34:49.921Z,13.14
2019-05-21T04:35:49.890Z,13.20
2019-05-21T04:36:49.864Z,13.23
2019-05-21T04:37:49.795Z,13.17
2019-05-21T04:38:49.756Z,13.17
2019-05-21T04:39:49.711Z,13.28
2019-05-21T04:40:49.677Z,13.20
2019-05-21T04:41:49.634Z,13.23
2019-05-21T04:42:49.621Z,13.11
2019-05-21T04:43:49.559Z,13.19
2019-05-21T04:44:49.519Z,13.14
2019-05-21T04:45:49.464Z,13.14
2019-05-21T04:46:49.434Z,13.19
2019-05-21T04:47:49.390Z,13.11
2019-05-21T04:48:49.372Z,13.14
2019-05-21T04:49:49.300Z,13.17
2019-05-21T04:50:49.293Z,13.14
2019-05-21T04:51:49.252Z,13.12
2019-05-21T04:52:49.188Z,13.20
2019-05-21T04:53:49.180Z,13.20
2019-05-21T04:54:49.105Z,13.22
2019-05-21T04:55:49.072Z,13.22
2019-05-21T04:56:49.019Z,13.29
2019-05-21T04:57:48.978Z,13.17
2019-05-21T04:58:48.942Z,13.19
2019-05-21T04:59:49.047Z,13.17
2019-05-21T05:00:48.865Z,13.15
2019-05-21T05:01:48.814Z,13.28
2019-05-21T05:02:48.768Z,13.26
2019-05-21T05:03:48.739Z,13.28
2019-05-21T05:04:48.702Z,13.19
2019-05-21T05:05:48.676Z,13.25
2019-05-21T05:06:48.617Z,13.20
2019-05-21T05:07:48.570Z,13.12
2019-05-21T05:08:48.525Z,13.15
2019-05-21T05:09:48.483Z,13.19
2019-05-21T05:10:49.373Z,13.23
2019-05-21T05:11:48.407Z,13.30
2019-05-21T05:12:48.398Z,13.25
2019-05-21T05:13:48.328Z,13.25
2019-05-21T05:14:48.288Z,13.26
2019-05-21T05:15:48.250Z,13.22
2019-05-21T05:16:48.198Z,13.22
2019-05-21T05:17:48.156Z,13.17
2019-05-21T05:18:48.151Z,13.19
2019-05-21T05:19:48.080Z,13.15
2019-05-21T05:20:48.033Z,13.23
2019-05-21T05:21:47.994Z,13.17
2019-05-21T05:22:47.979Z,13.20
2019-05-21T05:23:47.925Z,13.23
2019-05-21T05:24:47.879Z,13.30
2019-05-21T05:25:47.834Z,13.23
2019-05-21T05:26:47.797Z,13.30
2019-05-21T05:27:47.758Z,13.20
2019-05-21T05:28:47.733Z,13.26
2019-05-21T05:29:47.668Z,13.17
2019-05-21T05:30:47.626Z,13.19
2019-05-21T05:31:47.586Z,13.15
2019-05-21T05:32:47.555Z,13.19
2019-05-21T05:33:47.530Z,13.19
2019-05-21T05:34:47.485Z,13.28
2019-05-21T05:35:47.422Z,13.19
2019-05-21T05:36:47.390Z,13.26
2019-05-21T05:37:48.950Z,13.29
2019-05-21T05:38:47.305Z,13.22
2019-05-21T05:39:47.288Z,13.17
2019-05-21T05:40:47.241Z,13.19
2019-05-21T05:41:47.179Z,13.26
2019-05-21T05:42:47.138Z,13.22
2019-05-21T05:43:47.092Z,13.25
2019-05-21T05:44:47.128Z,13.23
2019-05-21T05:45:47.051Z,13.23
2019-05-21T05:46:46.980Z,13.26
2019-05-21T05:47:46.937Z,13.26
2019-05-21T05:48:46.961Z,13.28
2019-05-21T05:49:46.852Z,13.25
2019-05-21T05:50:46.839Z,13.29
2019-05-21T05:51:46.782Z,13.26
2019-05-21T05:52:46.734Z,13.25
2019-05-21T05:53:46.684Z,13.23
2019-05-21T05:54:46.646Z,13.25
2019-05-21T05:55:46.632Z,13.29
2019-05-21T05:56:46.570Z,13.26
2019-05-21T05:57:46.560Z,13.25
2019-05-21T05:58:46.491Z,13.22
2019-05-21T05:59:46.450Z,13.25
2019-05-21T06:00:46.400Z,13.29
2019-05-21T06:01:46.369Z,13.30
2019-05-21T06:02:46.317Z,13.48
2019-05-21T06:03:46.302Z,13.49
2019-05-21T06:04:46.251Z,13.48
2019-05-21T06:05:46.224Z,13.49
2019-05-21T06:06:46.155Z,13.54
2019-05-21T06:07:58.763Z,13.67
2019-05-21T06:08:46.135Z,13.63
2019-05-21T06:09:46.051Z,13.78
2019-05-21T06:10:46.001Z,13.66
2019-05-21T06:11:45.961Z,13.63
2019-05-21T06:12:45.915Z,13.52
2019-05-21T06:13:45.892Z,13.63
2019-05-21T06:14:45.867Z,13.63
2019-05-21T06:15:45.792Z,13.66
2019-05-21T06:16:45.932Z,13.57
2019-05-21T06:17:45.716Z,13.57
2019-05-21T06:18:45.749Z,13.55
2019-05-21T06:19:45.668Z,13.62
2019-05-21T06:20:45.587Z,13.62
2019-05-21T06:21:45.549Z,13.57
2019-05-21T06:22:45.522Z,13.51
2019-05-21T06:23:45.474Z,13.52
2019-05-21T06:24:45.426Z,13.38
2019-05-21T06:25:45.415Z,13.45
2019-05-21T06:26:45.352Z,13.49
2019-05-21T06:27:45.302Z,13.51
2019-05-21T06:28:45.291Z,13.51
2019-05-21T06:29:45.253Z,13.64
2019-05-21T06:30:45.189Z,13.66
2019-05-21T06:31:45.156Z,13.73
2019-05-21T06:32:45.101Z,13.64
2019-05-21T06:33:45.058Z,13.77
2019-05-21T06:34:48.185Z,13.70
2019-05-21T06:35:44.977Z,13.73
2019-05-21T06:36:44.942Z,13.79
2019-05-21T06:37:44.905Z,13.77
2019-05-21T06:38:44.904Z,13.84
2019-05-21T06:39:44.846Z,13.82
2019-05-21T06:40:44.786Z,13.82
2019-05-21T06:41:44.738Z,13.81
2019-05-21T06:42:44.700Z,13.88
2019-05-21T06:43:44.670Z,13.91
2019-05-21T06:44:44.617Z,13.92
2019-05-21T06:45:44.596Z,13.88
2019-05-21T06:46:44.528Z,13.97
2019-05-21T06:47:44.491Z,13.96
2019-05-21T06:48:44.452Z,13.92
2019-05-21T06:49:44.447Z,13.89
2019-05-21T06:50:44.384Z,13.79
2019-05-21T06:51:44.336Z,13.78
2019-05-21T06:52:44.293Z,13.82
2019-05-21T06:53:44.246Z,13.87
2019-05-21T06:54:44.215Z,13.89
2019-05-21T06:55:44.197Z,13.82
2019-05-21T06:56:44.125Z,13.73
2019-05-21T06:57:44.206Z,13.78
2019-05-21T06:58:44.078Z,13.79
2019-05-21T06:59:44.031Z,13.64
2019-05-21T07:00:44.027Z,13.66
2019-05-21T07:01:43.933Z,13.73
2019-05-21T07:02:43.888Z,13.73
2019-05-21T07:03:43.850Z,13.67
2019-05-21T07:04:43.802Z,13.60
2019-05-21T07:05:57.721Z,13.54
2019-05-21T07:06:44.850Z,13.51
2019-05-21T07:07:43.678Z,13.48
2019-05-21T07:08:43.644Z,13.49
2019-05-21T07:09:43.605Z,13.46
2019-05-21T07:10:43.558Z,13.42
2019-05-21T07:11:43.524Z,13.39
2019-05-21T07:12:43.516Z,13.44
2019-05-21T07:13:43.442Z,13.38
2019-05-21T07:14:43.403Z,13.38
2019-05-21T07:15:43.363Z,13.41
2019-05-21T07:16:43.318Z,13.42
2019-05-21T07:17:43.302Z,13.44
2019-05-21T07:18:43.258Z,13.36
2019-05-21T07:19:43.192Z,13.29
2019-05-21T07:20:43.160Z,13.33
2019-05-21T07:21:43.123Z,13.23
2019-05-21T07:22:43.130Z,13.26
2019-05-21T07:23:43.039Z,13.32
2019-05-21T07:24:43.010Z,13.29
2019-05-21T07:25:42.950Z,13.23
2019-05-21T07:26:42.934Z,13.26
2019-05-21T07:27:42.899Z,13.30
2019-05-21T07:28:42.835Z,13.30
2019-05-21T07:29:42.816Z,13.26
2019-05-21T07:30:42.748Z,13.26
2019-05-21T07:31:42.706Z,13.29
2019-05-21T07:32:42.703Z,13.29
2019-05-21T07:33:42.688Z,13.28
2019-05-21T07:34:42.592Z,13.14
2019-05-21T07:35:42.628Z,13.14
2019-05-21T07:36:42.513Z,13.15
2019-05-21T07:37:42.471Z,13.12
2019-05-21T07:38:52.775Z,13.19
2019-05-21T07:39:42.386Z,13.20
2019-05-21T07:40:42.377Z,13.17
2019-05-21T07:41:42.310Z,13.12
2019-05-21T07:42:42.261Z,13.23
2019-05-21T07:43:42.229Z,13.12
2019-05-21T07:44:42.183Z,13.05
2019-05-21T07:45:42.176Z,13.08
2019-05-21T07:46:42.129Z,13.11
2019-05-21T07:47:42.065Z,13.15
2019-05-21T07:48:42.014Z,13.19
2019-05-21T07:49:41.974Z,13.20
2019-05-21T07:50:41.943Z,13.07
2019-05-21T07:51:41.914Z,13.11
2019-05-21T07:52:41.865Z,13.10
2019-05-21T07:53:41.826Z,13.17
2019-05-21T07:54:41.781Z,13.20
2019-05-21T07:55:41.739Z,13.23
2019-05-21T07:56:41.718Z,13.14
2019-05-21T07:57:41.657Z,13.17
2019-05-21T07:58:41.616Z,13.11
2019-05-21T07:59:41.575Z,13.20
2019-05-21T08:00:41.529Z,13.20
2019-05-21T08:01:41.526Z,13.10
2019-05-21T08:02:41.451Z,13.10
2019-05-21T08:03:41.406Z,13.10
2019-05-21T08:04:41.394Z,13.07
2019-05-21T08:05:41.347Z,13.01
2019-05-21T08:06:41.323Z,13.00
2019-05-21T08:07:41.316Z,13.03
2019-05-21T08:08:41.204Z,13.08
2019-05-21T08:09:41.189Z,13.17
2019-05-21T08:10:41.121Z,13.12
2019-05-21T08:11:41.081Z,13.10
2019-05-21T08:12:41.053Z,13.12
2019-05-21T08:13:41.033Z,13.04
2019-05-21T08:14:40.961Z,13.10
2019-05-21T08:15:40.915Z,13.08
2019-05-21T08:16:40.926Z,13.03
2019-05-21T08:17:40.846Z,13.08
2019-05-21T08:18:40.828Z,13.04
2019-05-21T08:19:40.764Z,13.10
2019-05-21T08:20:40.783Z,13.07
2019-05-21T08:21:40.676Z,13.12
2019-05-21T08:22:40.641Z,13.04
2019-05-21T08:23:40.621Z,13.07
2019-05-21T08:24:40.588Z,13.05
2019-05-21T08:25:40.560Z,13.10
2019-05-21T08:26:40.488Z,13.10
2019-05-21T08:27:40.438Z,13.14
2019-05-21T08:28:40.393Z,13.22
2019-05-21T08:29:40.354Z,13.22
2019-05-21T08:30:40.345Z,13.17
2019-05-21T08:31:40.275Z,13.19
2019-05-21T08:32:40.228Z,13.05
2019-05-21T08:33:40.187Z,13.05
2019-05-21T08:34:40.144Z,13.05
2019-05-21T08:35:40.136Z,13.10
2019-05-21T08:36:40.075Z,13.19
2019-05-21T08:37:40.046Z,13.19
2019-05-21T08:38:39.995Z,13.20
2019-05-21T08:39:39.950Z,13.19
2019-05-21T08:40:39.905Z,13.17
2019-05-21T08:41:39.881Z,13.20
2019-05-21T08:42:39.846Z,13.19
2019-05-21T08:43:39.783Z,13.15
2019-05-21T08:44:39.756Z,13.08
2019-05-21T08:45:39.757Z,13.32
2019-05-21T08:46:39.656Z,13.20
2019-05-21T08:47:39.626Z,13.10
2019-05-21T08:48:39.586Z,13.10
2019-05-21T08:49:39.545Z,13.04
2019-05-21T08:50:39.502Z,13.03
2019-05-21T08:51:39.486Z,13.04
2019-05-21T08:52:39.505Z,13.05
2019-05-21T08:53:39.373Z,13.10
2019-05-21T08:54:39.336Z,13.08
2019-05-21T08:55:39.290Z,13.19
2019-05-21T08:56:39.260Z,13.19
2019-05-21T08:57:39.247Z,13.04
2019-05-21T08:58:39.178Z,13.17
2019-05-21T08:59:39.133Z,13.12
2019-05-21T09:00:39.088Z,13.19
2019-05-21T09:01:39.046Z,13.17
2019-05-21T09:02:39.009Z,13.19
2019-05-21T09:03:38.999Z,13.15
2019-05-21T09:04:46.228Z,13.20
2019-05-21T09:05:38.882Z,13.17
2019-05-21T09:06:38.852Z,13.14
2019-05-21T09:07:38.846Z,13.14
2019-05-21T09:08:38.770Z,13.22
2019-05-21T09:09:50.154Z,13.19
2019-05-21T09:10:38.685Z,13.20
2019-05-21T09:11:38.669Z,13.25
2019-05-21T09:12:38.699Z,13.23
2019-05-21T09:13:38.551Z,13.25
2019-05-21T09:14:38.515Z,13.32
2019-05-21T09:15:38.528Z,13.28
2019-05-21T09:16:38.440Z,13.26
2019-05-21T09:17:38.398Z,13.28
2019-05-21T09:18:38.351Z,13.25
2019-05-21T09:19:38.310Z,13.26
2019-05-21T09:20:38.306Z,13.22
2019-05-21T09:21:38.245Z,13.29
2019-05-21T09:22:38.196Z,13.28
2019-05-21T09:23:38.165Z,13.30
2019-05-21T09:24:38.114Z,13.29
2019-05-21T09:25:38.098Z,13.36
2019-05-21T09:26:38.090Z,13.36
2019-05-21T09:27:37.994Z,13.38
2019-05-21T09:28:37.951Z,13.51
2019-05-21T09:29:37.912Z,13.33
2019-05-21T09:30:37.870Z,13.33
2019-05-21T09:31:37.859Z,13.41
2019-05-21T09:32:37.793Z,13.41
2019-05-21T09:33:37.740Z,13.51
2019-05-21T09:34:48.279Z,13.46
2019-05-21T09:35:37.684Z,13.55
2019-05-21T09:36:37.640Z,13.51
2019-05-21T09:37:37.607Z,13.52
2019-05-21T09:38:37.538Z,13.57
2019-05-21T09:39:37.521Z,13.51
2019-05-21T09:40:37.467Z,13.49
2019-05-21T09:41:37.422Z,13.42
2019-05-21T09:42:37.383Z,13.42
2019-05-21T09:43:37.344Z,13.49
2019-05-21T09:44:37.326Z,13.57
2019-05-21T09:45:37.257Z,13.51
2019-05-21T09:46:37.216Z,13.52
2019-05-21T09:47:37.196Z,13.52
2019-05-21T09:48:37.142Z,13.54
2019-05-21T09:49:37.102Z,13.63
2019-05-21T09:50:37.054Z,13.54
2019-05-21T09:51:37.188Z,13.55
2019-05-21T09:52:37.009Z,13.51
2019-05-21T09:53:36.941Z,13.54
2019-05-21T09:54:36.896Z,13.57
2019-05-21T09:55:36.863Z,13.54
2019-05-21T09:56:36.840Z,13.48
2019-05-21T09:57:36.766Z,13.48
2019-05-21T09:58:36.759Z,13.55
2019-05-21T09:59:36.709Z,13.57
2019-05-21T10:00:36.733Z,13.64
2019-05-21T10:01:47.909Z,13.63
2019-05-21T10:02:46.116Z,13.64
2019-05-21T10:03:45.736Z,13.70
2019-05-21T10:04:45.188Z,13.63
2019-05-21T10:05:44.009Z,13.70
2019-05-21T10:06:45.720Z,13.64
2019-05-21T10:07:45.783Z,13.64
2019-05-21T10:08:45.808Z,13.67
2019-05-21T10:09:45.347Z,13.67
2019-05-21T10:10:43.763Z,13.67
2019-05-21T10:11:44.938Z,13.57
2019-05-21T10:12:45.445Z,13.60
2019-05-21T10:13:46.543Z,13.69
2019-05-21T10:14:36.072Z,13.69
2019-05-21T10:15:36.080Z,13.69
2019-05-21T10:16:35.996Z,13.71
2019-05-21T10:17:35.983Z,13.70
2019-05-21T10:18:35.926Z,13.63
2019-05-21T10:19:35.875Z,13.73
2019-05-21T10:20:35.837Z,13.62
2019-05-21T10:21:35.828Z,13.62
2019-05-21T10:22:35.747Z,13.71
2019-05-21T10:23:35.708Z,13.62
2019-05-21T10:24:35.666Z,13.66
2019-05-21T10:25:35.635Z,13.67
2019-05-21T10:26:35.606Z,13.77
2019-05-21T10:27:35.574Z,13.67
2019-05-21T10:28:44.535Z,13.71
2019-05-21T10:29:44.607Z,13.78
2019-05-21T10:30:44.608Z,13.79
2019-05-21T10:31:44.649Z,13.85
2019-05-21T10:32:35.373Z,13.84
2019-05-21T10:33:35.306Z,13.75
2019-05-21T10:34:35.258Z,13.73
2019-05-21T10:35:35.218Z,13.67
2019-05-21T10:36:35.213Z,13.70
2019-05-21T10:37:35.162Z,13.55
2019-05-21T10:38:35.118Z,13.55
2019-05-21T10:39:35.056Z,13.54
2019-05-21T10:40:35.023Z,13.70
2019-05-21T10:41:34.973Z,13.69
2019-05-21T10:42:34.950Z,13.69
2019-05-21T10:43:34.898Z,13.69
2019-05-21T10:44:34.910Z,13.78
2019-05-21T10:45:34.817Z,13.82
2019-05-21T10:46:34.775Z,13.84
2019-05-21T10:47:34.727Z,13.70
2019-05-21T10:48:34.698Z,13.69
2019-05-21T10:49:34.677Z,13.73
2019-05-21T10:50:34.622Z,13.63
2019-05-21T10:51:34.582Z,13.70
2019-05-21T10:52:34.527Z,13.71
2019-05-21T10:53:34.486Z,13.67
2019-05-21T10:54:34.454Z,13.64
2019-05-21T10:55:34.439Z,13.70
2019-05-21T10:56:47.590Z,13.63
2019-05-21T10:57:34.343Z,13.57
2019-05-21T10:58:34.286Z,13.69
2019-05-21T10:59:34.245Z,13.64
2019-05-21T11:00:34.209Z,13.79
2019-05-21T11:01:34.195Z,13.75
2019-05-21T11:02:34.131Z,13.81
2019-05-21T11:03:34.095Z,13.64
2019-05-21T11:04:34.050Z,13.67
2019-05-21T11:05:34.022Z,13.73
2019-05-21T11:06:33.993Z,13.78
2019-05-21T11:07:33.924Z,13.75
2019-05-21T11:08:33.895Z,13.81
2019-05-21T11:09:33.862Z,13.79
2019-05-21T11:10:33.807Z,13.81
2019-05-21T11:11:33.760Z,13.79
2019-05-21T11:12:33.742Z,13.77
2019-05-21T11:13:33.680Z,13.81
2019-05-21T11:14:33.652Z,13.82
2019-05-21T11:15:33.621Z,13.77
2019-05-21T11:16:33.565Z,13.73
2019-05-21T11:17:48.412Z,13.84
2019-05-21T11:18:33.528Z,13.75
2019-05-21T11:19:33.439Z,13.81
2019-05-21T11:20:33.400Z,13.82
2019-05-21T11:21:33.362Z,13.70
2019-05-21T11:22:33.331Z,13.70
2019-05-21T11:23:33.321Z,13.64
2019-05-21T11:24:33.241Z,13.70
2019-05-21T11:25:33.201Z,13.67
2019-05-21T11:26:33.170Z,13.66
2019-05-21T11:27:33.127Z,13.70
2019-05-21T11:28:33.107Z,13.77
2019-05-21T11:29:33.041Z,13.82
2019-05-21T11:30:33.029Z,13.77
2019-05-21T11:31:32.956Z,13.79
2019-05-21T11:32:32.912Z,13.82
2019-05-21T11:33:32.920Z,13.84
2019-05-21T11:34:32.841Z,13.88
2019-05-21T11:35:35.833Z,13.81
2019-05-21T11:36:32.759Z,13.81
2019-05-21T11:37:32.718Z,13.77
2019-05-21T11:38:39.946Z,13.78
2019-05-21T11:39:32.641Z,13.84
2019-05-21T11:40:32.599Z,13.89
2019-05-21T11:41:32.559Z,13.95
2019-05-21T11:42:32.511Z,13.97
2019-05-21T11:43:32.497Z,13.92
2019-05-21T11:44:32.443Z,13.89
2019-05-21T11:45:33.179Z,13.92
2019-05-21T11:46:32.359Z,14.02
2019-05-21T11:47:32.319Z,14.07
2019-05-21T11:48:32.302Z,13.85
2019-05-21T11:49:32.242Z,13.95
2019-05-21T11:50:32.211Z,14.02
2019-05-21T11:51:32.156Z,13.95
2019-05-21T11:52:32.109Z,13.91
2019-05-21T11:53:32.360Z,13.96
2019-05-21T11:54:32.068Z,13.91
2019-05-21T11:55:31.994Z,13.97
2019-05-21T11:56:31.953Z,14.04
2019-05-21T11:57:31.934Z,13.99
2019-05-21T11:58:31.910Z,13.96
2019-05-21T11:59:31.837Z,13.91
2019-05-21T12:00:31.807Z,13.95
2019-05-21T12:01:31.752Z,13.96
2019-05-21T12:02:31.737Z,13.99
2019-05-21T12:03:31.674Z,13.97
2019-05-21T12:04:31.631Z,13.79
2019-05-21T12:05:31.602Z,13.91
2019-05-21T12:06:31.553Z,13.95
2019-05-21T12:07:31.545Z,14.02
2019-05-21T12:08:31.483Z,13.88
2019-05-21T12:09:31.444Z,13.99
2019-05-21T12:10:31.388Z,14.03
2019-05-21T12:11:31.349Z,13.95
2019-05-21T12:12:31.315Z,13.95
2019-05-21T12:13:31.297Z,13.75
2019-05-21T12:14:31.225Z,13.82
2019-05-21T12:15:31.186Z,13.84
2019-05-21T12:16:31.147Z,13.79
2019-05-21T12:17:31.114Z,13.85
2019-05-21T12:18:31.103Z,13.95
2019-05-21T12:19:31.030Z,13.89
2019-05-21T12:20:36.783Z,13.92
2019-05-21T12:21:30.948Z,13.85
2019-05-21T12:22:30.907Z,13.96
2019-05-21T12:23:30.870Z,13.96
2019-05-21T12:24:30.850Z,13.88
2019-05-21T12:25:30.785Z,13.85
2019-05-21T12:26:30.753Z,13.91
2019-05-21T12:27:30.717Z,13.91
2019-05-21T12:28:30.672Z,13.92
2019-05-21T12:29:34.074Z,13.88
2019-05-21T12:30:30.617Z,13.91
2019-05-21T12:31:30.551Z,13.96
2019-05-21T12:32:30.534Z,13.92
2019-05-21T12:33:30.487Z,13.97
2019-05-21T12:34:30.426Z,13.92
2019-05-21T12:35:30.406Z,13.92
2019-05-21T12:36:30.352Z,13.99
2019-05-21T12:37:30.370Z,14.03
2019-05-21T12:38:30.267Z,13.99
2019-05-21T12:39:30.249Z,14.10
2019-05-21T12:40:30.195Z,14.09
2019-05-21T12:41:30.150Z,14.06
2019-05-21T12:42:30.101Z,14.06
2019-05-21T12:43:30.063Z,14.02
2019-05-21T12:44:30.063Z,13.96
2019-05-21T12:45:29.990Z,13.88
2019-05-21T12:46:29.939Z,13.96
2019-05-21T12:47:29.903Z,13.96
2019-05-21T12:48:29.859Z,14.03
2019-05-21T12:49:29.828Z,14.04
2019-05-21T12:50:29.807Z,13.99
2019-05-21T12:51:29.770Z,13.97